Time;durP1;ratioP1;P1;durP2;ratioP2;P2;SDS_P1;SDS_P2;PMS_P1;PMS_P2;Temp;Humidity;BMP_temperature;BMP_pressure;BME280_temperature;BME280_humidity;BME280_pressure;Samples;Min_cycle;Max_cycle;Signal;HPM_P1;HPM_P2
2023/12/23 00:00:28;;;;;;;0.63;0.63;;;10.70;99.90;;;10.97;83.19;99950.63;4864844;28;25004;-67
2023/12/23 00:02:50;;;;;;;0.80;0.60;;;10.80;99.90;;;10.97;84.05;99960.28;4869317;28;24482;-67
2023/12/23 00:05:12;;;;;;;1.10;0.68;;;10.70;99.90;;;10.93;83.33;99957.91;4864405;28;24455;-67
2023/12/23 00:07:35;;;;;;;2.20;0.80;;;10.70;99.90;;;10.91;84.46;99975.47;4871893;28;24885;-66
2023/12/23 00:09:57;;;;;;;0.90;0.70;;;10.60;99.90;;;10.90;84.22;99968.59;4867564;28;24541;-67
2023/12/23 00:12:19;;;;;;;1.88;0.80;;;10.60;99.90;;;10.84;84.80;99966.50;4875142;28;24537;-66
2023/12/23 00:14:41;;;;;;;0.80;0.80;;;10.60;99.90;;;10.87;85.15;99971.47;4868019;28;24875;-66
2023/12/23 00:17:03;;;;;;;0.60;0.60;;;10.60;99.90;;;10.85;85.19;99975.16;4876457;28;24442;-66
2023/12/23 00:19:25;;;;;;;2.50;1.00;;;10.60;99.90;;;10.87;85.66;99970.63;4865016;28;24509;-65
2023/12/23 00:21:48;;;;;;;1.27;0.88;;;10.60;99.90;;;10.87;85.14;99970.63;4875849;28;24441;-66
2023/12/23 00:24:09;;;;;;;2.85;0.90;;;10.60;99.90;;;10.86;85.51;99980.25;4871927;28;24542;-65
2023/12/23 00:26:31;;;;;;;3.10;0.73;;;10.60;99.90;;;10.84;85.50;99987.38;4865137;28;24555;-66
2023/12/23 00:28:54;;;;;;;0.90;0.70;;;10.50;99.90;;;10.87;85.40;99976.69;4864284;28;24526;-66
2023/12/23 00:31:16;;;;;;;1.90;0.90;;;10.60;99.90;;;10.90;86.31;99981.63;4864655;28;24427;-64
2023/12/23 00:33:39;;;;;;;2.50;0.60;;;10.60;99.90;;;10.84;86.67;99981.31;4872479;28;24526;-66
2023/12/23 00:36:01;;;;;;;1.15;0.80;;;10.60;99.90;;;10.87;87.20;99997.56;4869344;28;25042;-67
2023/12/23 00:38:23;;;;;;;1.70;0.90;;;10.60;99.90;;;10.87;87.65;99991.50;4867677;28;24498;-68
2023/12/23 00:40:45;;;;;;;1.80;0.80;;;10.60;99.90;;;10.86;87.62;99998.50;4865823;28;24431;-66
2023/12/23 00:43:07;;;;;;;0.80;0.80;;;10.60;99.90;;;10.79;88.09;100000.00;4874535;28;24525;-67
2023/12/23 00:45:29;;;;;;;1.00;0.90;;;10.50;99.90;;;10.79;88.33;100007.00;4872108;28;24458;-66
2023/12/23 00:47:51;;;;;;;1.08;0.80;;;10.50;99.90;;;10.80;87.99;100014.69;4861189;28;24505;-66
2023/12/23 00:50:14;;;;;;;2.37;0.90;;;10.50;99.90;;;10.80;87.74;100017.28;4867628;28;24432;-65
2023/12/23 00:52:36;;;;;;;1.73;0.65;;;10.50;99.90;;;10.79;87.51;100026.09;4855846;28;24535;-66
2023/12/23 00:54:58;;;;;;;2.00;0.70;;;10.50;99.90;;;10.84;87.29;100029.13;4866970;28;24430;-66
2023/12/23 00:57:19;;;;;;;1.25;0.90;;;10.50;99.90;;;10.79;87.49;100028.69;4865944;28;24429;-66
2023/12/23 00:59:42;;;;;;;1.10;0.90;;;10.50;99.90;;;10.83;87.62;100022.25;4860115;28;24495;-66
2023/12/23 01:02:04;;;;;;;2.30;0.80;;;10.60;99.90;;;10.84;86.44;100020.47;4869225;28;24487;-68
2023/12/23 01:04:26;;;;;;;1.20;1.00;;;10.50;99.90;;;10.85;86.57;100025.56;4857592;28;24435;-67
2023/12/23 01:06:47;;;;;;;2.00;0.90;;;10.50;99.90;;;10.83;86.85;100024.03;4865361;28;24462;-67
2023/12/23 01:09:09;;;;;;;2.40;1.00;;;10.50;99.90;;;10.82;86.20;100036.25;4857942;28;24997;-66
2023/12/23 01:11:32;;;;;;;1.70;0.90;;;10.50;99.90;;;10.88;86.94;100034.94;4872830;28;24431;-67
2023/12/23 01:13:54;;;;;;;2.10;1.07;;;10.50;99.90;;;10.93;86.35;100040.59;4867958;28;24760;-67
2023/12/23 01:16:15;;;;;;;0.80;0.80;;;10.60;99.90;;;10.92;86.20;100042.38;4874143;28;24455;-66
2023/12/23 01:18:37;;;;;;;0.80;0.70;;;10.60;99.90;;;10.88;86.23;100043.56;4869108;28;24478;-66
2023/12/23 01:20:59;;;;;;;1.00;0.90;;;10.60;99.90;;;10.90;86.65;100035.66;4853119;28;24964;-66
2023/12/23 01:23:21;;;;;;;2.50;0.90;;;10.60;99.90;;;10.93;86.17;100045.81;4874146;28;24427;-68
2023/12/23 01:25:44;;;;;;;2.40;0.80;;;10.60;99.90;;;10.91;86.49;100047.72;4869805;28;24447;-66
2023/12/23 01:28:06;;;;;;;1.80;0.93;;;10.60;99.90;;;10.87;86.99;100049.75;4869003;28;24451;-66
2023/12/23 01:30:29;;;;;;;2.30;0.73;;;10.60;99.90;;;10.86;86.95;100061.16;4855647;28;24558;-66
2023/12/23 01:32:51;;;;;;;1.48;1.00;;;10.60;99.90;;;10.90;86.20;100054.72;4869592;28;24438;-66
2023/12/23 01:35:13;;;;;;;1.00;0.85;;;10.60;99.90;;;10.91;86.73;100055.56;4873383;28;24993;-67
2023/12/23 01:37:34;;;;;;;1.75;1.00;;;10.60;99.90;;;10.92;86.68;100060.63;4869858;28;24517;-66
2023/12/23 01:39:56;;;;;;;1.90;0.80;;;10.60;99.90;;;10.94;85.77;100056.13;4874841;28;24436;-67
2023/12/23 01:42:18;;;;;;;0.98;0.85;;;10.70;99.90;;;10.97;85.81;100060.25;4873426;28;24438;-67
2023/12/23 01:44:40;;;;;;;2.25;0.80;;;10.70;99.90;;;10.94;85.78;100056.13;4863087;28;24447;-66
2023/12/23 01:47:04;;;;;;;0.70;0.70;;;10.60;99.90;;;10.86;85.95;100060.34;4872973;28;24818;-67
2023/12/23 01:49:27;;;;;;;1.50;0.80;;;10.60;99.90;;;10.91;85.77;100060.78;4872027;28;24524;-67
2023/12/23 01:51:50;;;;;;;2.50;0.90;;;10.60;99.90;;;10.95;84.94;100064.78;4874185;28;24778;-67
2023/12/23 01:54:12;;;;;;;1.60;0.80;;;10.60;99.90;;;10.93;85.00;100061.47;4858599;28;25049;-66
2023/12/23 01:56:34;;;;;;;3.55;1.00;;;10.70;99.90;;;10.88;86.09;100069.66;4868848;28;24447;-67
2023/12/23 01:58:57;;;;;;;4.28;1.00;;;10.60;99.90;;;10.90;86.24;100072.19;4870807;28;24505;-66
2023/12/23 02:01:19;;;;;;;1.25;0.90;;;10.60;99.90;;;10.90;87.25;100066.97;4845086;28;24448;-67
2023/12/23 02:03:41;;;;;;;2.03;1.10;;;10.60;99.90;;;10.88;86.11;100061.84;4873922;28;24435;-66
2023/12/23 02:06:03;;;;;;;2.42;1.15;;;10.60;99.90;;;10.90;85.71;100070.38;4868423;28;24814;-66
2023/12/23 02:08:25;;;;;;;1.40;0.98;;;10.60;99.90;;;10.86;85.97;100068.16;4850574;28;24450;-66
2023/12/23 02:10:55;;;;;;;0.90;0.80;;;10.60;99.90;;;10.86;86.36;100076.81;4858159;28;24890;-66
2023/12/23 02:13:27;;;;;;;2.72;0.90;;;10.60;99.90;;;10.88;85.47;100079.31;4864180;28;24505;-66
2023/12/23 02:15:50;;;;;;;2.83;1.10;;;10.60;99.90;;;10.80;86.34;100079.09;4839324;28;24459;-66
2023/12/23 02:18:11;;;;;;;1.17;0.70;;;10.50;99.90;;;10.82;85.86;100083.22;4851630;28;24451;-67
2023/12/23 02:20:34;;;;;;;6.18;1.10;;;10.50;99.90;;;10.80;85.91;100076.47;4867575;28;25187;-66
2023/12/23 02:22:56;;;;;;;1.17;0.90;;;10.50;99.90;;;10.83;85.65;100079.69;4856521;28;24841;-67
2023/12/23 02:25:18;;;;;;;0.70;0.70;;;10.50;99.90;;;10.88;84.88;100076.69;4864674;28;24451;-67
2023/12/23 02:27:50;;;;;;;3.50;0.90;;;10.50;99.90;;;10.79;85.09;100073.06;4840018;28;25422;-66
2023/12/23 02:30:15;;;;;;;1.80;0.75;;;10.50;99.90;;;10.82;85.64;100070.19;4869525;28;24530;-66
2023/12/23 02:32:38;;;;;;;1.30;0.80;;;10.50;99.90;;;10.84;85.11;100070.03;4849104;28;24551;-67
2023/12/23 02:35:00;;;;;;;1.00;0.70;;;10.50;99.90;;;10.86;84.99;100063.75;4871576;28;25003;-66
2023/12/23 02:37:22;;;;;;;1.50;0.60;;;10.50;99.90;;;10.89;83.99;100073.13;4856768;28;24475;-66
2023/12/23 02:39:44;;;;;;;1.70;0.80;;;10.60;99.90;;;10.91;84.25;100077.25;4863058;28;24543;-66
2023/12/23 02:42:06;;;;;;;1.48;0.82;;;10.60;99.90;;;10.89;84.94;100081.78;4872398;28;24952;-66
2023/12/23 02:44:27;;;;;;;0.70;0.70;;;10.60;99.90;;;10.91;84.47;100085.09;4867797;28;24466;-66
2023/12/23 02:46:49;;;;;;;3.25;0.90;;;10.60;99.90;;;10.85;85.40;100083.00;4866518;28;25055;-66
2023/12/23 02:49:11;;;;;;;1.10;0.77;;;10.50;99.90;;;10.84;84.19;100096.97;4861895;28;24451;-66
2023/12/23 02:51:33;;;;;;;0.60;0.60;;;10.50;99.90;;;10.76;84.75;100088.94;4870884;28;24500;-66
2023/12/23 02:53:55;;;;;;;2.35;0.70;;;10.50;99.90;;;10.76;86.30;100099.38;4864413;28;24813;-66
2023/12/23 02:56:17;;;;;;;1.58;0.60;;;10.50;99.90;;;10.73;86.56;100083.16;4869062;28;24801;-67
2023/12/23 02:58:39;;;;;;;2.22;1.20;;;10.40;99.90;;;10.69;86.96;100087.78;4872861;28;24433;-66
2023/12/23 03:01:07;;;;;;;2.75;0.80;;;10.40;99.90;;;10.68;87.11;100091.34;4867527;28;24443;-67
2023/12/23 03:03:29;;;;;;;3.10;1.00;;;10.40;99.90;;;10.64;87.10;100094.34;4864298;28;24473;-65
2023/12/23 03:05:53;;;;;;;1.98;0.70;;;10.30;99.90;;;10.67;86.98;100097.50;4868368;28;24450;-65
2023/12/23 03:08:15;;;;;;;1.40;0.80;;;10.30;99.90;;;10.61;87.20;100095.41;4872862;28;25229;-66
2023/12/23 03:10:37;;;;;;;1.90;1.10;;;10.30;99.90;;;10.65;86.71;100088.97;4870195;28;24625;-68
2023/12/23 03:12:59;;;;;;;1.00;0.80;;;10.40;99.90;;;10.68;86.69;100078.31;4876253;28;24485;-65
2023/12/23 03:15:21;;;;;;;3.85;1.30;;;10.40;99.90;;;10.65;87.57;100080.31;4865734;28;24488;-65
2023/12/23 03:17:43;;;;;;;1.75;0.93;;;10.40;99.90;;;10.66;86.08;100085.44;4878240;28;24999;-65
2023/12/23 03:20:06;;;;;;;1.50;0.97;;;10.40;99.90;;;10.70;85.88;100083.41;4875641;28;24443;-65
2023/12/23 03:22:28;;;;;;;1.10;1.00;;;10.40;99.90;;;10.71;86.63;100091.09;4866471;28;24442;-65
2023/12/23 03:24:50;;;;;;;1.17;0.80;;;10.40;99.90;;;10.72;86.17;100077.09;4863873;28;24481;-66
2023/12/23 03:27:12;;;;;;;1.00;0.90;;;10.40;99.90;;;10.72;86.12;100068.44;4864080;28;24459;-66
2023/12/23 03:29:33;;;;;;;3.60;0.98;;;10.40;99.90;;;10.70;85.03;100072.97;4867565;28;24980;-67
2023/12/23 03:31:55;;;;;;;1.77;1.00;;;10.40;99.90;;;10.68;85.75;100067.88;4875633;28;24435;-68
2023/12/23 03:34:17;;;;;;;1.27;0.90;;;10.40;99.90;;;10.67;85.83;100074.03;4873539;28;24509;-65
2023/12/23 03:36:39;;;;;;;1.30;1.00;;;10.40;99.90;;;10.62;85.57;100070.16;4876091;28;24526;-65
2023/12/23 03:39:01;;;;;;;1.20;0.80;;;10.30;99.90;;;10.67;85.43;100074.03;4874334;28;24474;-66
2023/12/23 03:41:23;;;;;;;2.47;0.88;;;10.30;99.90;;;10.65;85.53;100073.31;4876657;28;21370;-66
2023/12/23 03:43:45;;;;;;;1.90;1.20;;;10.40;99.90;;;10.63;85.64;100061.34;4846665;28;24536;-66
2023/12/23 03:46:07;;;;;;;1.30;0.98;;;10.30;99.90;;;10.63;85.80;100063.97;4868392;28;24992;-66
2023/12/23 03:48:29;;;;;;;2.00;0.70;;;10.30;99.90;;;10.63;85.60;100071.78;4855164;28;24824;-66
2023/12/23 03:50:50;;;;;;;2.38;0.80;;;10.30;99.90;;;10.60;85.07;100059.84;4856951;28;24431;-66
2023/12/23 03:53:14;;;;;;;2.67;0.80;;;10.30;99.90;;;10.58;85.72;100059.16;4869271;28;25047;-66
2023/12/23 03:55:38;;;;;;;3.20;1.00;;;10.30;99.90;;;10.61;86.08;100052.81;4866510;28;24845;-66
2023/12/23 03:58:02;;;;;;;5.10;1.00;;;10.30;99.90;;;10.57;86.88;100070.53;4873090;28;24513;-66
2023/12/23 04:00:24;;;;;;;0.95;0.80;;;10.30;99.90;;;10.57;86.16;100073.13;4858183;28;24849;-66
2023/12/23 04:02:46;;;;;;;2.22;0.80;;;10.30;99.90;;;10.60;86.88;100075.50;4869754;28;24556;-66
2023/12/23 04:05:08;;;;;;;0.90;0.90;;;10.30;99.90;;;10.64;86.58;100069.09;4859693;28;24564;-66
2023/12/23 04:07:30;;;;;;;1.10;0.70;;;10.30;99.90;;;10.64;86.85;100063.88;4874682;28;24455;-66
2023/12/23 04:09:52;;;;;;;1.30;0.80;;;10.30;99.90;;;10.61;87.43;100053.66;4868695;28;24439;-67
2023/12/23 04:12:14;;;;;;;4.00;1.08;;;10.30;99.90;;;10.59;86.34;100062.56;4875021;28;24510;-67
2023/12/23 04:14:40;;;;;;;0.70;0.70;;;10.30;99.90;;;10.61;86.99;100077.16;4875154;28;24516;-66
2023/12/23 04:17:01;;;;;;;0.80;0.80;;;10.30;99.90;;;10.63;87.21;100077.00;4857959;28;25019;-67
2023/12/23 04:19:23;;;;;;;2.08;1.10;;;10.30;99.90;;;10.64;86.79;100074.31;4866235;28;24798;-66
2023/12/23 04:21:45;;;;;;;0.73;0.60;;;10.30;99.90;;;10.62;87.09;100071.00;4864109;28;24539;-66
2023/12/23 04:24:07;;;;;;;1.30;0.90;;;10.30;99.90;;;10.61;88.09;100069.31;4862748;28;24459;-66
2023/12/23 04:26:30;;;;;;;1.20;0.90;;;10.30;99.90;;;10.63;86.86;100066.56;4859630;28;25059;-65
2023/12/23 04:28:52;;;;;;;1.50;1.00;;;10.30;99.90;;;10.62;88.00;100057.94;4864880;28;24887;-66
2023/12/23 04:31:14;;;;;;;2.00;0.90;;;10.30;99.90;;;10.64;87.77;100053.44;4854718;28;24450;-67
2023/12/23 04:33:37;;;;;;;1.50;0.90;;;10.30;99.90;;;10.65;86.83;100052.47;4863272;28;24985;-66
2023/12/23 04:35:59;;;;;;;3.00;1.50;;;10.30;99.90;;;10.61;86.78;100064.09;4860481;28;24917;-66
2023/12/23 04:38:21;;;;;;;0.93;0.93;;;10.30;99.90;;;10.66;86.72;100059.34;4865497;28;24516;-67
2023/12/23 04:40:43;;;;;;;0.90;0.80;;;10.30;99.90;;;10.71;86.91;100053.75;4866992;28;24455;-66
2023/12/23 04:43:05;;;;;;;1.60;0.70;;;10.40;99.90;;;10.71;87.36;100051.16;4863563;28;24438;-67
2023/12/23 04:45:27;;;;;;;0.98;0.70;;;10.40;99.90;;;10.66;86.61;100053.28;4866924;28;20878;-66
2023/12/23 04:47:49;;;;;;;1.83;0.77;;;10.40;99.90;;;10.73;87.69;100057.88;4861220;28;24904;-67
2023/12/23 04:50:11;;;;;;;1.17;1.08;;;10.50;99.90;;;10.69;86.90;100051.25;4867835;28;24549;-67
2023/12/23 04:52:32;;;;;;;1.20;1.10;;;10.40;99.90;;;10.64;86.80;100052.59;4873566;28;24489;-68
2023/12/23 04:54:54;;;;;;;0.95;0.90;;;10.30;99.90;;;10.64;86.70;100050.81;4860207;28;25297;-66
2023/12/23 04:57:16;;;;;;;2.00;0.70;;;10.30;99.90;;;10.68;86.38;100049.63;4860537;28;24468;-66
2023/12/23 04:59:38;;;;;;;2.47;0.93;;;10.40;99.90;;;10.75;85.94;100045.53;4874831;28;24438;-66
2023/12/23 05:02:00;;;;;;;2.13;1.00;;;10.50;99.90;;;10.74;86.51;100043.88;4870958;28;24450;-66
2023/12/23 05:04:22;;;;;;;1.30;0.80;;;10.40;99.90;;;10.68;85.62;100049.63;4860181;28;24533;-66
2023/12/23 05:06:44;;;;;;;0.90;0.90;;;10.40;99.90;;;10.68;85.40;100047.00;4857489;28;24746;-66
2023/12/23 05:09:06;;;;;;;1.88;0.80;;;10.40;99.90;;;10.72;85.31;100037.97;4868964;28;24514;-66
2023/12/23 05:11:28;;;;;;;2.88;0.90;;;10.40;99.90;;;10.66;85.48;100033.25;4855869;28;24417;-66
2023/12/23 05:13:50;;;;;;;1.10;0.90;;;10.40;99.90;;;10.63;86.32;100028.28;4868711;28;24431;-67
2023/12/23 05:16:12;;;;;;;2.00;0.90;;;10.40;99.90;;;10.67;85.86;100029.69;4863308;28;24522;-66
2023/12/23 05:18:34;;;;;;;2.70;0.82;;;10.40;99.90;;;10.67;86.39;100026.25;4860521;28;24546;-66
2023/12/23 05:20:56;;;;;;;1.10;1.00;;;10.40;99.90;;;10.68;86.02;100028.75;4873257;28;24965;-65
2023/12/23 05:23:18;;;;;;;1.30;0.80;;;10.30;99.90;;;10.69;85.39;100035.59;4865349;28;24483;-66
2023/12/23 05:25:40;;;;;;;2.17;1.00;;;10.40;99.90;;;10.74;85.29;100027.41;4872593;28;24444;-66
2023/12/23 05:28:02;;;;;;;4.10;1.38;;;10.40;99.90;;;10.71;85.93;100028.47;4864000;28;25019;-66
2023/12/23 05:30:24;;;;;;;1.83;1.10;;;10.40;99.90;;;10.69;85.69;100033.00;4865460;28;24964;-66
2023/12/23 05:32:46;;;;;;;1.80;1.10;;;10.40;99.90;;;10.71;85.97;100028.47;4866729;28;24440;-66
2023/12/23 05:35:08;;;;;;;2.30;1.20;;;10.40;99.90;;;10.66;85.35;100009.78;4874531;28;24429;-66
2023/12/23 05:37:31;;;;;;;1.23;1.13;;;10.40;99.90;;;10.70;85.38;100010.34;4862807;28;24458;-66
2023/12/23 05:39:52;;;;;;;1.17;1.00;;;10.40;99.90;;;10.70;84.11;100002.50;4869899;28;24519;-66
2023/12/23 05:42:15;;;;;;;0.60;0.60;;;10.50;99.90;;;10.71;83.50;100005.00;4870351;28;24429;-65
2023/12/23 05:44:36;;;;;;;1.00;1.00;;;10.40;99.90;;;10.76;83.92;100012.44;4857783;28;24535;-66
2023/12/23 05:46:59;;;;;;;0.90;0.90;;;10.50;99.90;;;10.75;83.94;100013.41;4865814;28;24428;-65
2023/12/23 05:49:21;;;;;;;0.73;0.73;;;10.40;99.90;;;10.79;83.04;100007.81;4869083;28;24476;-66
2023/12/23 05:51:45;;;;;;;2.20;1.10;;;10.50;99.90;;;10.80;83.50;100021.69;4857221;28;24527;-66
2023/12/23 05:54:07;;;;;;;1.63;1.20;;;10.50;99.90;;;10.77;83.46;100014.94;4854982;28;25014;-67
2023/12/23 05:56:29;;;;;;;3.80;1.30;;;10.50;99.90;;;10.75;83.74;100019.44;4861945;28;24992;-66
2023/12/23 05:58:51;;;;;;;1.60;1.00;;;10.40;99.90;;;10.78;82.66;100002.72;4869273;28;24573;-67
2023/12/23 06:01:13;;;;;;;2.30;1.10;;;10.50;99.90;;;10.76;83.79;100015.06;4857262;28;24531;-66
2023/12/23 06:03:35;;;;;;;2.90;1.10;;;10.50;99.90;;;10.77;83.17;100004.50;4851791;28;24491;-66
2023/12/23 06:05:57;;;;;;;2.20;1.20;;;10.50;99.90;;;10.80;82.63;100006.00;4860526;28;24542;-66
2023/12/23 06:08:19;;;;;;;2.30;1.30;;;10.50;99.90;;;10.79;83.13;100007.00;4861686;28;24443;-67
2023/12/23 06:10:41;;;;;;;1.13;1.02;;;10.50;99.90;;;10.76;83.49;99996.78;4864910;28;25012;-66
2023/12/23 06:13:18;;;;;;;0.95;0.95;;;10.50;99.90;;;10.81;81.98;99990.25;4865740;28;24980;-68
2023/12/23 06:15:40;;;;;;;1.60;1.20;;;10.50;99.90;;;10.85;82.21;100003.88;4861443;28;24538;-66
2023/12/23 06:18:02;;;;;;;3.65;1.60;;;10.60;99.90;;;10.86;82.75;100006.34;4861870;28;24506;-66
2023/12/23 06:20:24;;;;;;;1.20;1.20;;;10.50;99.90;;;10.86;82.62;100016.78;4862025;28;24428;-66
2023/12/23 06:22:46;;;;;;;1.50;1.40;;;10.50;99.90;;;10.82;82.46;100031.03;4831584;28;24435;-67
2023/12/23 06:25:08;;;;;;;3.03;1.60;;;10.50;99.90;;;10.90;82.67;100022.59;4863364;28;24501;-66
2023/12/23 06:27:30;;;;;;;2.53;1.50;;;10.60;99.90;;;10.90;83.11;100014.75;4869271;28;24521;-67
2023/12/23 06:29:52;;;;;;;2.00;1.10;;;10.60;99.90;;;10.79;82.67;100026.09;4870188;28;25065;-67
2023/12/23 06:32:14;;;;;;;2.08;1.30;;;10.60;99.90;;;10.82;82.24;100023.22;4868467;28;24541;-66
2023/12/23 06:34:36;;;;;;;0.90;0.90;;;10.60;99.90;;;10.80;82.04;100019.91;4873588;28;24523;-67
2023/12/23 06:36:58;;;;;;;1.45;1.15;;;10.50;99.90;;;10.80;82.04;100006.84;4865495;28;25129;-66
2023/12/23 06:39:20;;;;;;;1.55;1.00;;;10.50;99.90;;;10.80;82.40;100006.84;4839554;28;24931;-66
2023/12/23 06:41:42;;;;;;;2.95;1.40;;;10.50;99.90;;;10.84;82.56;100010.03;4867338;28;24431;-67
2023/12/23 06:44:08;;;;;;;1.20;1.10;;;10.50;99.90;;;10.83;82.00;99984.91;4863999;28;24452;-67
2023/12/23 06:46:30;;;;;;;2.10;1.70;;;10.50;99.90;;;10.85;82.50;99989.03;4858034;28;24432;-66
2023/12/23 06:48:52;;;;;;;4.30;1.30;;;10.50;99.90;;;10.78;81.79;99982.66;4871448;28;24455;-65
2023/12/23 06:51:14;;;;;;;1.10;1.00;;;10.50;99.90;;;10.82;81.37;99980.63;4869282;28;24554;-67
2023/12/23 06:53:36;;;;;;;2.22;1.70;;;10.50;99.90;;;10.85;81.37;99988.22;4872813;28;24556;-66
2023/12/23 06:55:58;;;;;;;2.60;1.40;;;10.50;99.90;;;10.86;81.69;99985.47;4866835;28;24490;-66
2023/12/23 06:58:22;;;;;;;1.05;0.93;;;10.50;99.90;;;10.87;81.40;99981.91;4872137;28;24458;-66
2023/12/23 07:00:44;;;;;;;1.40;1.30;;;10.60;99.90;;;10.84;81.57;99979.53;4857267;28;24447;-66
2023/12/23 07:03:06;;;;;;;1.98;1.10;;;10.50;99.90;;;10.82;81.62;99985.84;4869120;28;25089;-66
2023/12/23 07:05:28;;;;;;;3.13;1.38;;;10.60;99.90;;;10.87;80.83;99988.91;4876355;28;24547;-66
2023/12/23 07:07:50;;;;;;;1.83;1.10;;;10.60;99.90;;;10.80;81.44;99985.13;4861457;28;24453;-66
2023/12/23 07:10:13;;;;;;;1.52;1.38;;;10.50;99.90;;;10.80;81.96;99993.81;4866531;28;24956;-66
2023/12/23 07:12:35;;;;;;;2.77;1.10;;;10.50;99.90;;;10.85;81.10;99983.81;4875891;28;24423;-66
2023/12/23 07:14:57;;;;;;;1.42;1.00;;;10.60;99.90;;;10.83;80.67;99995.34;4864868;28;25014;-68
2023/12/23 07:17:19;;;;;;;1.50;1.40;;;10.50;99.90;;;10.81;80.78;100002.47;4866725;28;24957;-66
2023/12/23 07:20:00;;;;;;;1.60;1.20;;;10.50;99.90;;;10.81;81.51;99998.09;4869045;28;24443;-66
2023/12/23 07:22:22;;;;;;;1.30;0.70;;;10.50;99.90;;;10.74;81.67;100023.00;4853972;28;24528;-66
2023/12/23 07:24:44;;;;;;;0.50;0.50;;;10.50;99.90;;;10.80;81.66;100026.88;4862168;28;24501;-65
2023/12/23 07:27:06;;;;;;;1.17;0.90;;;10.50;99.90;;;10.84;80.76;100023.91;4865228;28;24494;-65
2023/12/23 07:29:28;;;;;;;4.03;1.40;;;10.60;99.90;;;10.89;80.34;100032.19;4870992;28;24494;-66
2023/12/23 07:31:50;;;;;;;2.30;1.50;;;10.60;99.90;;;10.85;80.86;100036.03;4875717;28;24840;-66
2023/12/23 07:34:12;;;;;;;0.90;0.80;;;10.60;99.90;;;10.86;80.76;100013.38;4863742;28;24501;-64
2023/12/23 07:36:35;;;;;;;1.27;0.77;;;10.60;99.90;;;10.87;80.75;100035.88;4865518;28;24435;-66
2023/12/23 07:38:57;;;;;;;1.10;1.10;;;10.60;99.90;;;10.83;81.09;100029.25;4871111;28;25087;-67
2023/12/23 07:41:19;;;;;;;1.23;1.13;;;10.60;99.90;;;10.78;80.50;100028.81;4854206;28;24519;-66
2023/12/23 07:43:41;;;;;;;2.20;1.00;;;10.50;99.90;;;10.80;80.91;100032.94;4858340;28;24563;-66
2023/12/23 07:46:03;;;;;;;1.10;0.90;;;10.50;99.90;;;10.79;81.16;100039.13;4852697;28;24479;-68
2023/12/23 07:48:25;;;;;;;2.80;1.00;;;10.50;99.90;;;10.80;80.82;100042.56;4870877;28;25415;-66
2023/12/23 07:50:47;;;;;;;1.00;0.90;;;10.50;99.90;;;10.80;81.21;100042.56;4874918;28;24455;-68
2023/12/23 07:53:09;;;;;;;1.10;0.80;;;10.50;99.90;;;10.78;80.71;100042.69;4873553;28;24432;-67
2023/12/23 07:55:31;;;;;;;1.30;0.80;;;10.50;99.90;;;10.77;81.52;100053.25;4860366;28;24880;-66
2023/12/23 07:57:53;;;;;;;1.30;0.90;;;10.50;99.90;;;10.70;82.07;100046.88;4862601;28;24427;-67
2023/12/23 08:00:16;;;;;;;1.20;1.10;;;10.40;99.90;;;10.75;80.74;100061.19;4861773;28;24434;-66
2023/12/23 08:02:38;;;;;;;1.10;0.90;;;10.50;99.90;;;10.80;80.40;100056.44;4861669;28;25046;-67
2023/12/23 08:05:00;;;;;;;1.20;0.70;;;10.50;99.90;;;10.76;80.54;100041.97;4873282;28;24451;-66
2023/12/23 08:07:22;;;;;;;1.48;0.90;;;10.50;99.90;;;10.80;80.45;100066.88;4876083;28;24558;-65
2023/12/23 08:09:44;;;;;;;1.20;1.10;;;10.50;99.90;;;10.80;81.25;100064.25;4863920;28;24455;-67
2023/12/23 08:12:07;;;;;;;1.33;1.10;;;10.50;99.90;;;10.83;81.22;100039.69;4865438;28;24438;-66
2023/12/23 08:14:29;;;;;;;0.75;0.75;;;10.50;99.90;;;10.78;81.35;100065.34;4872964;28;24478;-66
2023/12/23 08:16:52;;;;;;;0.80;0.80;;;10.50;99.90;;;10.83;80.91;100074.47;4876716;28;24836;-65
2023/12/23 08:19:14;;;;;;;2.42;0.80;;;10.50;99.90;;;10.80;82.52;100086.91;4872591;28;24844;-68
2023/12/23 08:21:39;;;;;;;1.10;0.70;;;10.50;99.90;;;10.80;82.47;100095.56;4859428;28;25074;-65
2023/12/23 08:24:03;;;;;;;1.10;1.10;;;10.50;99.90;;;10.73;82.57;100094.41;4868939;28;24773;-66
2023/12/23 08:26:25;;;;;;;0.80;0.80;;;10.40;99.90;;;10.70;82.60;100075.56;4862827;28;24538;-66
2023/12/23 08:28:47;;;;;;;0.80;0.80;;;10.40;99.90;;;10.72;83.52;100086.72;4874953;28;24443;-67
2023/12/23 08:31:09;;;;;;;0.70;0.70;;;10.40;99.90;;;10.72;83.42;100077.09;4864782;28;24452;-66
2023/12/23 08:33:33;;;;;;;0.65;0.65;;;10.40;99.90;;;10.70;83.53;100089.47;4859584;28;24440;-66
2023/12/23 08:35:56;;;;;;;0.70;0.70;;;10.40;99.90;;;10.64;84.28;100084.72;4863611;28;24523;-67
2023/12/23 08:38:18;;;;;;;0.65;0.57;;;10.40;99.90;;;10.62;84.38;100083.19;4848040;28;24946;-67
2023/12/23 08:40:40;;;;;;;0.68;0.68;;;10.30;99.90;;;10.67;84.06;100079.25;4854888;28;24818;-67
2023/12/23 08:43:02;;;;;;;0.50;0.50;;;10.30;99.90;;;10.68;83.64;100067.88;4862422;28;24928;-67
2023/12/23 08:45:24;;;;;;;0.50;0.50;;;10.40;99.90;;;10.68;83.77;100073.09;4865776;28;24562;-66
2023/12/23 08:47:46;;;;;;;1.75;0.68;;;10.30;99.90;;;10.69;84.19;100066.91;4869167;28;24524;-66
2023/12/23 08:50:09;;;;;;;0.93;0.60;;;10.30;99.90;;;10.74;84.01;100069.16;4870515;28;24546;-65
2023/12/23 08:52:31;;;;;;;0.50;0.50;;;10.40;99.90;;;10.70;84.08;100068.59;4860148;28;24440;-67
2023/12/23 08:54:53;;;;;;;0.50;0.50;;;10.40;99.90;;;10.76;84.29;100086.34;4865457;28;24446;-67
2023/12/23 08:57:14;;;;;;;0.50;0.50;;;10.40;99.90;;;10.80;84.35;100079.91;4869942;28;24991;-68
2023/12/23 08:59:36;;;;;;;0.80;0.60;;;10.40;99.90;;;10.79;83.56;100087.88;4866883;28;24534;-70
2023/12/23 09:02:02;;;;;;;0.40;0.40;;;10.50;99.90;;;10.81;84.80;100104.25;4865056;28;24443;-68
2023/12/23 09:04:24;;;;;;;1.00;0.50;;;10.50;99.90;;;10.76;84.77;100101.16;4865378;28;24973;-66
2023/12/23 09:06:46;;;;;;;0.50;0.50;;;10.40;99.90;;;10.73;84.25;100099.63;4859863;28;24451;-66
2023/12/23 09:09:08;;;;;;;0.50;0.40;;;10.40;99.90;;;10.76;84.00;100093.34;4865452;28;24458;-66
2023/12/23 09:11:30;;;;;;;1.20;0.50;;;10.40;99.90;;;10.77;85.49;100108.88;4859379;28;24454;-67
2023/12/23 09:13:52;;;;;;;0.90;0.55;;;10.40;99.90;;;10.83;85.71;100110.16;4873848;28;24446;-66
2023/12/23 09:16:14;;;;;;;0.60;0.50;;;10.40;99.90;;;10.84;85.03;100112.63;4865401;28;24890;-66
2023/12/23 09:18:36;;;;;;;0.40;0.40;;;10.40;99.90;;;10.91;85.39;100131.25;4853557;28;25066;-67
2023/12/23 09:20:58;;;;;;;0.50;0.50;;;10.50;99.90;;;10.84;84.85;100123.06;4847790;28;24431;-66
2023/12/23 09:23:20;;;;;;;0.50;0.50;;;10.50;99.90;;;10.86;84.66;100120.38;4864974;28;25052;-66
2023/12/23 09:25:42;;;;;;;0.50;0.50;;;10.50;99.90;;;10.87;85.18;100116.78;4859000;28;24840;-67
2023/12/23 09:28:05;;;;;;;0.40;0.40;;;10.50;99.90;;;10.84;84.44;100119.63;4864809;28;24926;-67
2023/12/23 09:30:27;;;;;;;0.60;0.50;;;10.50;99.90;;;10.90;84.64;100113.94;4862042;28;25001;-67
2023/12/23 09:32:49;;;;;;;0.70;0.70;;;10.50;99.90;;;10.99;84.43;100117.59;4860107;28;24446;-66
2023/12/23 09:35:11;;;;;;;0.40;0.40;;;10.60;99.90;;;10.97;84.70;100122.09;4856430;28;24428;-69
2023/12/23 09:37:33;;;;;;;0.50;0.50;;;10.60;99.90;;;10.90;84.67;100112.13;4873080;28;24848;-69
2023/12/23 09:39:58;;;;;;;0.40;0.40;;;10.60;99.90;;;10.87;85.57;100108.97;4863595;28;24439;-68
2023/12/23 09:42:22;;;;;;;0.40;0.40;;;10.50;99.90;;;10.93;84.97;100111.06;4865652;28;25162;-66
2023/12/23 09:44:46;;;;;;;0.40;0.40;;;10.60;99.90;;;10.94;85.01;100113.53;4861541;28;24554;-67
2023/12/23 09:47:08;;;;;;;0.50;0.50;;;10.60;99.90;;;10.94;85.35;100103.09;4856864;28;24444;-66
2023/12/23 09:49:30;;;;;;;0.50;0.50;;;10.60;99.90;;;10.94;84.80;100094.47;4838933;28;25286;-66
2023/12/23 09:51:55;;;;;;;0.50;0.50;;;10.60;99.90;;;10.96;85.44;100094.31;4868016;28;24496;-66